Wetterdaten: aktuell Samstag, 09.05.2026 23:45
Datum Zeit Temp. A. Feuchte A. Luftdruck Regen Wind Richtung Richtung Sonnenschein UV Windböen
09.05.2026 23:45 15,1 °C 63 % 1012,6 hPa 0,0 l/m² 2,0 km/h O 98 ° 0 min 0,0 UV-I 11,3 km/h
09.05.2026 22:45 16,1 °C 61 % 1013,1 hPa 0,0 l/m² 1,0 km/h NO 54 ° 0 min 0,0 UV-I 4,8 km/h
09.05.2026 21:45 17,1 °C 58 % 1013,1 hPa 0,0 l/m² 1,5 km/h O-NO 78 ° 0 min 0,0 UV-I 4,8 km/h
09.05.2026 20:45 19,0 °C 51 % 1012,6 hPa 0,0 l/m² 1,7 km/h O-NO 67 ° 5 min 0,0 UV-I 6,4 km/h
09.05.2026 19:45 21,0 °C 46 % 1012,3 hPa 0,0 l/m² 2,7 km/h O 99 ° 10 min 0,0 UV-I 8,0 km/h
09.05.2026 18:45 21,5 °C 44 % 1012,3 hPa 0,0 l/m² 5,3 km/h O-NO 78 ° 0 min 0,5 UV-I 12,9 km/h
09.05.2026 17:45 22,2 °C 45 % 1012,7 hPa 0,0 l/m² 3,3 km/h O-NO 68 ° 0 min 0,9 UV-I 9,7 km/h
09.05.2026 16:45 23,2 °C 43 % 1013,2 hPa 0,0 l/m² 4,2 km/h O 89 ° 55 min 2,3 UV-I 9,7 km/h
09.05.2026 15:45 23,2 °C 44 % 1013,8 hPa 0,0 l/m² 4,7 km/h NO 54 ° 60 min 3,2 UV-I 12,9 km/h
09.05.2026 14:45 23,1 °C 47 % 1014,5 hPa 0,0 l/m² 4,0 km/h N-NO 32 ° 60 min 4,2 UV-I 17,7 km/h
09.05.2026 13:45 21,9 °C 47 % 1015,1 hPa 0,0 l/m² 2,4 km/h O 96 ° 60 min 4,6 UV-I 9,7 km/h
09.05.2026 12:45 20,1 °C 51 % 1015,9 hPa 0,0 l/m² 5,8 km/h O-SO 119 ° 60 min 4,2 UV-I 12,9 km/h
09.05.2026 11:45 18,9 °C 57 % 1016,4 hPa 0,0 l/m² 4,0 km/h O-SO 118 ° 60 min 3,9 UV-I 12,9 km/h
09.05.2026 10:45 17,1 °C 64 % 1016,6 hPa 0,0 l/m² 3,2 km/h O-NO 69 ° 35 min 2,8 UV-I 8,0 km/h
09.05.2026 09:45 13,3 °C 71 % 1016,9 hPa 0,0 l/m² 3,6 km/h NO 48 ° 10 min 1,2 UV-I 8,0 km/h
09.05.2026 08:45 11,2 °C 79 % 1016,9 hPa 0,0 l/m² 2,6 km/h N-NO 14 ° 0 min 0,9 UV-I 6,4 km/h
09.05.2026 07:45 9,4 °C 83 % 1017,0 hPa 0,0 l/m² 0,0 km/h N 0 ° 0 min 0,0 UV-I 0,0 km/h
09.05.2026 06:45 8,6 °C 83 % 1016,6 hPa 0,0 l/m² 0,0 km/h N 0 ° 0 min 0,0 UV-I 0,0 km/h
09.05.2026 05:45 8,8 °C 82 % 1016,2 hPa 0,0 l/m² 0,0 km/h N 0 ° 0 min 0,0 UV-I 0,0 km/h
09.05.2026 04:45 8,9 °C 81 % 1016,3 hPa 0,0 l/m² 0,0 km/h N 0 ° 0 min 0,0 UV-I 0,0 km/h
09.05.2026 03:45 8,9 °C 80 % 1016,0 hPa 0,0 l/m² 1,6 km/h NW 315 ° 0 min 0,0 UV-I 4,8 km/h
09.05.2026 02:45 9,1 °C 79 % 1016,0 hPa 0,0 l/m² 1,6 km/h NW 315 ° 0 min 0,0 UV-I 3,2 km/h
09.05.2026 01:45 9,9 °C 76 % 1016,5 hPa 0,0 l/m² 0,0 km/h NW 315 ° 0 min 0,0 UV-I 3,2 km/h
09.05.2026 00:45 10,4 °C 73 % 1016,5 hPa 0,0 l/m² 0,0 km/h N 0 ° 0 min 0,0 UV-I 0,0 km/h
09.05.2026 00:00 10,9 °C 72 % 1016,3 hPa 0,0 l/m² 3,2 km/h NW 315 ° 0 min 0,0 UV-I 4,8 km/h
_ Min-Zeit 06:50 16:40 20:25 - 08:25 - - - - 08:00
Minimum _ 8,5 °C 42 % 1012,2 hPa - 0,0 km/h - - - - 0,0 km/h
_ Max-Zeit 16:35 07:40 08:10 23:45 12:40 - - 19:50 13:50 17:35
Maximum _ 23,7 °C 84 % 1017,0 hPa 0,0 l/m² 8,0 km/h
O
- - 5 min 4,7 UV-I 17,7 km/h
O
Durchschnitt _ 15,7 °C 63 % 1015,0 hPa #0,0 l/m² 2,7 km/h O-NO - #6:55 h 2,6 UV-I 7,4 km/h